MVD6408 USRO-URMM
Flight info
| Callsign | MVD6408 |
|---|---|
| Flight time | N/A |
| Altitude | 34000 |
| Route | K0822F340 DINO2G DINOL T797 MGR L992 KUPOM/K0804F360 L992 AKB Z210 KODUM N996 AKT N37 IPLED DCT GOTIK DCT MEMZA A962 OKARU OKAR5B |
| Aircraft | T204/M-Q/L |
Departure
| Time | 2026-04-14 10:35 |
|---|---|
| Airport | Noyabrsk Airport (USRO) |
Arrival
| Time | N/A |
|---|---|
| Airport | Mineralnye Vody Airport (URMM) |
| Time | Latitude | Longitude | Altitude | Speed | Heading |
|---|---|---|---|---|---|
| 2026-04-14 10:15 | 63.18216 | 75.27263 | 459 ft | 0 kts | 112° |
| 2026-04-14 10:28 | 63.18212 | 75.27316 | 459 ft | 6 kts | 79° |
| 2026-04-14 10:29 | 63.18237 | 75.27360 | 459 ft | 3 kts | 355° |
| 2026-04-14 10:29 | 63.18252 | 75.27337 | 459 ft | 1 kts | 307° |
| 2026-04-14 10:29 | 63.18254 | 75.27327 | 459 ft | 0 kts | 295° |
| 2026-04-14 10:29 | 63.18256 | 75.27319 | 459 ft | 2 kts | 296° |
| 2026-04-14 10:30 | 63.18272 | 75.27248 | 459 ft | 7 kts | 295° |
| 2026-04-14 10:30 | 63.18301 | 75.27113 | 459 ft | 10 kts | 295° |
| 2026-04-14 10:30 | 63.18330 | 75.26976 | 459 ft | 9 kts | 294° |
| 2026-04-14 10:30 | 63.18329 | 75.26859 | 459 ft | 7 kts | 234° |
| 2026-04-14 10:31 | 63.18286 | 75.26785 | 459 ft | 10 kts | 206° |
| 2026-04-14 10:31 | 63.18204 | 75.26701 | 459 ft | 15 kts | 205° |
| 2026-04-14 10:31 | 63.18093 | 75.26587 | 459 ft | 18 kts | 205° |
| 2026-04-14 10:31 | 63.17984 | 75.26475 | 459 ft | 16 kts | 204° |
| 2026-04-14 10:32 | 63.17886 | 75.26374 | 459 ft | 14 kts | 204° |
| 2026-04-14 10:32 | 63.17799 | 75.26286 | 459 ft | 12 kts | 204° |
| 2026-04-14 10:32 | 63.17723 | 75.26208 | 459 ft | 11 kts | 204° |
| 2026-04-14 10:32 | 63.17658 | 75.26141 | 459 ft | 9 kts | 205° |
| 2026-04-14 10:33 | 63.17588 | 75.26068 | 459 ft | 14 kts | 205° |
| 2026-04-14 10:33 | 63.17474 | 75.25948 | 459 ft | 21 kts | 203° |
| 2026-04-14 10:33 | 63.17412 | 75.25964 | 459 ft | 8 kts | 166° |
| 2026-04-14 10:33 | 63.17415 | 75.25902 | 459 ft | 8 kts | 3° |
| 2026-04-14 10:34 | 63.17496 | 75.25977 | 459 ft | 12 kts | 24° |
| 2026-04-14 10:34 | 63.17761 | 75.26244 | 459 ft | 83 kts | 24° |
| 2026-04-14 10:34 | 63.18531 | 75.27037 | 553 ft | 150 kts | 23° |
| 2026-04-14 10:35 | 63.19490 | 75.27953 | 1568 ft | 155 kts | 22° |
| 2026-04-14 10:35 | 63.20422 | 75.28883 | 2726 ft | 158 kts | 21° |
| 2026-04-14 10:35 | 63.21513 | 75.29992 | 3200 ft | 188 kts | 24° |
| 2026-04-14 10:35 | 63.22685 | 75.31252 | 3911 ft | 190 kts | 22° |
| 2026-04-14 10:36 | 63.23904 | 75.32552 | 4292 ft | 213 kts | 23° |
| 2026-04-14 10:36 | 63.25279 | 75.34003 | 5042 ft | 224 kts | 22° |
| 2026-04-14 10:36 | 63.26669 | 75.35465 | 5967 ft | 227 kts | 22° |
| 2026-04-14 10:36 | 63.28092 | 75.36962 | 6873 ft | 230 kts | 21° |
| 2026-04-14 10:37 | 63.29620 | 75.37730 | 7713 ft | 229 kts | 355° |
| 2026-04-14 10:37 | 63.31134 | 75.36845 | 8606 ft | 230 kts | 332° |
| 2026-04-14 10:37 | 63.32331 | 75.34610 | 9442 ft | 235 kts | 309° |
| 2026-04-14 10:37 | 63.33023 | 75.31298 | 10295 ft | 242 kts | 286° |
| 2026-04-14 10:38 | 63.33048 | 75.27568 | 11086 ft | 253 kts | 264° |
| 2026-04-14 10:38 | 63.32333 | 75.23920 | 11830 ft | 270 kts | 234° |
| 2026-04-14 10:38 | 63.30730 | 75.21599 | 12503 ft | 290 kts | 199° |
| 2026-04-14 10:38 | 63.28684 | 75.21471 | 13029 ft | 309 kts | 167° |
| 2026-04-14 10:39 | 63.26587 | 75.22969 | 13436 ft | 323 kts | 172° |
| 2026-04-14 10:39 | 63.24368 | 75.22509 | 13746 ft | 330 kts | 205° |
| 2026-04-14 10:39 | 63.22506 | 75.19653 | 14128 ft | 329 kts | 234° |
| 2026-04-14 10:39 | 63.21493 | 75.15215 | 14553 ft | 325 kts | 264° |
| 2026-04-14 10:40 | 63.21228 | 75.10364 | 15284 ft | 325 kts | 263° |
| 2026-04-14 10:40 | 63.20375 | 75.05617 | 15815 ft | 343 kts | 244° |
| 2026-04-14 10:40 | 63.18838 | 75.01495 | 16503 ft | 355 kts | 228° |
| 2026-04-14 10:40 | 63.16886 | 74.98133 | 17140 ft | 363 kts | 218° |
| 2026-04-14 10:41 | 63.14610 | 74.95645 | 17693 ft | 373 kts | 208° |
| 2026-04-14 10:41 | 63.12233 | 74.93349 | 18279 ft | 376 kts | 208° |
| 2026-04-14 10:41 | 63.09707 | 74.91637 | 18787 ft | 387 kts | 194° |
| 2026-04-14 10:41 | 63.07016 | 74.91013 | 19318 ft | 392 kts | 190° |
| 2026-04-14 10:42 | 63.04489 | 74.89235 | 19687 ft | 385 kts | 218° |
| 2026-04-14 10:42 | 63.02633 | 74.85246 | 20269 ft | 368 kts | 244° |
| 2026-04-14 10:42 | 63.01474 | 74.80304 | 20823 ft | 367 kts | 245° |
| 2026-04-14 10:42 | 62.99654 | 74.76248 | 21149 ft | 394 kts | 217° |
| 2026-04-14 10:43 | 62.97060 | 74.74143 | 21652 ft | 409 kts | 193° |
| 2026-04-14 10:43 | 62.94214 | 74.73658 | 22175 ft | 411 kts | 191° |
| 2026-04-14 10:43 | 62.91429 | 74.72418 | 22579 ft | 411 kts | 197° |
| 2026-04-14 10:43 | 62.88614 | 74.71063 | 22989 ft | 415 kts | 197° |
| 2026-04-14 10:44 | 62.85827 | 74.69710 | 23345 ft | 419 kts | 197° |
| 2026-04-14 10:44 | 62.83051 | 74.67897 | 23666 ft | 416 kts | 210° |
| 2026-04-14 10:44 | 62.80642 | 74.64631 | 24073 ft | 406 kts | 226° |
| 2026-04-14 10:44 | 62.78737 | 74.60291 | 24485 ft | 395 kts | 240° |
| 2026-04-14 10:45 | 62.77069 | 74.55516 | 24791 ft | 404 kts | 233° |
| 2026-04-14 10:45 | 62.74818 | 74.51666 | 25110 ft | 419 kts | 217° |
| 2026-04-14 10:45 | 62.72125 | 74.49063 | 25451 ft | 431 kts | 202° |
| 2026-04-14 10:45 | 62.69263 | 74.47323 | 25780 ft | 431 kts | 205° |
| 2026-04-14 10:46 | 62.66652 | 74.44363 | 26015 ft | 423 kts | 222° |
| 2026-04-14 10:46 | 62.64488 | 74.40125 | 26378 ft | 412 kts | 237° |
| 2026-04-14 10:46 | 62.62914 | 74.35144 | 26724 ft | 403 kts | 247° |
| 2026-04-14 10:46 | 62.61178 | 74.30187 | 27042 ft | 418 kts | 231° |
| 2026-04-14 10:47 | 62.58855 | 74.26364 | 27417 ft | 429 kts | 216° |
| 2026-04-14 10:47 | 62.56105 | 74.23774 | 27826 ft | 437 kts | 201° |
| 2026-04-14 10:47 | 62.53157 | 74.22474 | 28215 ft | 439 kts | 196° |
| 2026-04-14 10:47 | 62.50324 | 74.20379 | 28499 ft | 430 kts | 212° |
| 2026-04-14 10:48 | 62.47874 | 74.16897 | 28815 ft | 419 kts | 227° |
| 2026-04-14 10:48 | 62.45941 | 74.12368 | 29176 ft | 405 kts | 242° |
| 2026-04-14 10:48 | 62.44602 | 74.07176 | 29568 ft | 395 kts | 250° |
| 2026-04-14 10:48 | 62.43024 | 74.02250 | 29833 ft | 410 kts | 233° |
| 2026-04-14 10:49 | 62.40828 | 73.98274 | 30116 ft | 422 kts | 219° |
| 2026-04-14 10:49 | 62.38188 | 73.95496 | 30461 ft | 431 kts | 204° |
| 2026-04-14 10:49 | 62.35283 | 73.93922 | 30801 ft | 433 kts | 200° |
| 2026-04-14 10:49 | 62.32542 | 73.91520 | 31037 ft | 422 kts | 217° |
| 2026-04-14 10:50 | 62.30248 | 73.87829 | 31341 ft | 410 kts | 231° |
| 2026-04-14 10:50 | 62.28478 | 73.83124 | 31656 ft | 397 kts | 246° |
| 2026-04-14 10:50 | 62.27056 | 73.78104 | 31952 ft | 401 kts | 239° |
| 2026-04-14 10:50 | 62.25071 | 73.73886 | 32169 ft | 414 kts | 223° |
| 2026-04-14 10:51 | 62.22549 | 73.70737 | 32480 ft | 423 kts | 208° |